Time;durP1;ratioP1;P1;durP2;ratioP2;P2;SDS_P1;SDS_P2;PMS_P1;PMS_P2;Temp;Humidity;BMP_temperature;BMP_pressure;BME280_temperature;BME280_humidity;BME280_pressure;Samples;Min_cycle;Max_cycle;Signal;HPM_P1;HPM_P2
2022/08/08 00:00:13;;;;;;;1.55;0.50;;;;;;;;;;5087921;28;20031;-77
2022/08/08 00:02:54;;;;;;;0.77;0.45;;;;;;;;;;5070328;28;20028;-76
2022/08/08 00:05:30;;;;;;;1.20;0.43;;;;;;;;;;5088454;28;20027;-78
2022/08/08 00:08:08;;;;;;;0.40;0.30;;;;;;;;;;5078858;28;20024;-77
2022/08/08 00:10:55;;;;;;;2.40;0.40;;;;;;;;;;5087831;28;20092;-77
2022/08/08 00:13:30;;;;;;;0.98;0.50;;;;;;;;;;5069433;28;20158;-78
2022/08/08 00:16:03;;;;;;;1.05;0.73;;;;;;;;;;5076083;28;20038;-78
2022/08/08 00:18:47;;;;;;;0.20;0.20;;;;;;;;;;5089551;28;20027;-78
2022/08/08 00:21:17;;;;;;;4.68;0.75;;;;;;;;;;5090168;28;20039;-77
2022/08/08 00:24:10;;;;;;;0.17;0.17;;;;;;;;;;5077842;28;20018;-77
2022/08/08 00:26:39;;;;;;;0.45;0.45;;;;;;;;;;5098087;28;20027;-77
2022/08/08 00:29:15;;;;;;;1.10;0.35;;;;;;;;;;5075332;28;20144;-77
2022/08/08 00:31:47;;;;;;;1.70;0.82;;;;;;;;;;5079804;28;20465;-78
2022/08/08 00:37:17;;;;;;;1.35;0.65;;;;;;;;;;5080381;28;20415;-78
2022/08/08 00:40:25;;;;;;;0.60;0.50;;;;;;;;;;5053005;28;20452;-78
2022/08/08 00:43:15;;;;;;;0.70;0.70;;;;;;;;;;5099030;28;20054;-78
2022/08/08 00:45:56;;;;;;;1.27;0.40;;;;;;;;;;5092936;28;20093;-77
2022/08/08 00:48:50;;;;;;;0.30;0.30;;;;;;;;;;5095068;28;20023;-78
2022/08/08 00:51:34;;;;;;;0.57;0.57;;;;;;;;;;5054161;28;20039;-78
2022/08/08 00:54:18;;;;;;;0.40;0.25;;;;;;;;;;5091021;28;20363;-78
2022/08/08 00:57:11;;;;;;;0.93;0.60;;;;;;;;;;5068491;28;20024;-78
2022/08/08 01:00:11;;;;;;;0.28;0.25;;;;;;;;;;5092742;28;20086;-77
2022/08/08 01:03:01;;;;;;;2.80;0.47;;;;;;;;;;5074693;28;20019;-78
2022/08/08 01:05:48;;;;;;;1.30;0.95;;;;;;;;;;5093596;28;20037;-77
2022/08/08 01:08:47;;;;;;;0.52;0.52;;;;;;;;;;5091303;28;20042;-78
2022/08/08 01:11:31;;;;;;;1.13;0.60;;;;;;;;;;5100229;28;20019;-77
2022/08/08 01:14:27;;;;;;;0.80;0.63;;;;;;;;;;5105183;28;20024;-77
2022/08/08 01:17:18;;;;;;;3.05;0.60;;;;;;;;;;5075611;28;20060;-78
2022/08/08 01:20:05;;;;;;;0.98;0.43;;;;;;;;;;5070849;28;20055;-78
2022/08/08 01:22:40;;;;;;;0.47;0.47;;;;;;;;;;5088414;28;20024;-78
2022/08/08 01:25:32;;;;;;;1.13;0.43;;;;;;;;;;5094291;28;20020;-77
2022/08/08 01:27:58;;;;;;;1.40;0.70;;;;;;;;;;5075855;28;20020;-77
2022/08/08 01:30:41;;;;;;;3.40;0.85;;;;;;;;;;5074061;28;20024;-76
2022/08/08 01:33:31;;;;;;;0.38;0.30;;;;;;;;;;5079283;28;20095;-78
2022/08/08 01:36:27;;;;;;;0.38;0.38;;;;;;;;;;5063935;28;20023;-77
2022/08/08 01:39:09;;;;;;;0.68;0.65;;;;;;;;;;5094523;28;20034;-78
2022/08/08 01:41:53;;;;;;;;;;;;;;;;;;5092948;28;20403;-77
2022/08/08 01:44:21;;;;;;;1.10;0.88;;;;;;;;;;5087824;28;19965;-78
2022/08/08 01:47:36;;;;;;;0.88;0.75;;;;;;;;;;5087776;28;20119;-77
2022/08/08 01:50:34;;;;;;;0.57;0.50;;;;;;;;;;5039549;28;20036;-78
2022/08/08 01:53:32;;;;;;;1.63;0.52;;;;;;;;;;5089670;28;20036;-77
2022/08/08 01:56:10;;;;;;;1.75;0.68;;;;;;;;;;5071249;28;20126;-77
2022/08/08 01:59:14;;;;;;;1.33;0.75;;;;;;;;;;5105845;28;20622;-78
2022/08/08 02:02:08;;;;;;;0.52;0.30;;;;;;;;;;5082139;28;20112;-77
2022/08/08 02:04:55;;;;;;;1.75;0.70;;;;;;;;;;5085392;28;20051;-77
2022/08/08 02:07:21;;;;;;;0.70;0.60;;;;;;;;;;5093484;28;20095;-78
2022/08/08 02:10:05;;;;;;;0.88;0.47;;;;;;;;;;5090685;28;20099;-77
2022/08/08 02:12:43;;;;;;;0.55;0.30;;;;;;;;;;5092192;28;20043;-78
2022/08/08 02:15:40;;;;;;;1.23;0.60;;;;;;;;;;5091361;28;20104;-77
2022/08/08 02:18:09;;;;;;;0.52;0.52;;;;;;;;;;5055851;28;20356;-78
2022/08/08 02:24:28;;;;;;;0.65;0.35;;;;;;;;;;5012001;28;20123;-78
2022/08/08 02:27:10;;;;;;;0.45;0.40;;;;;;;;;;5092556;28;20040;-78
2022/08/08 02:29:53;;;;;;;1.07;0.80;;;;;;;;;;5066361;28;20032;-78
2022/08/08 02:32:53;;;;;;;1.60;0.73;;;;;;;;;;5093774;28;20281;-78
2022/08/08 02:35:31;;;;;;;1.05;0.95;;;;;;;;;;5097747;28;20444;-77
2022/08/08 02:38:12;;;;;;;0.32;0.30;;;;;;;;;;5059603;28;20032;-77
2022/08/08 02:40:53;;;;;;;0.63;0.60;;;;;;;;;;5068464;28;20028;-78
2022/08/08 02:43:34;;;;;;;4.40;0.70;;;;;;;;;;5095992;28;20082;-77
2022/08/08 02:46:23;;;;;;;1.05;0.60;;;;;;;;;;5101073;28;20478;-78
2022/08/08 02:49:07;;;;;;;1.98;0.70;;;;;;;;;;5097416;28;20123;-77
2022/08/08 02:51:41;;;;;;;0.40;0.30;;;;;;;;;;5095158;28;20024;-78
2022/08/08 02:54:31;;;;;;;1.00;0.60;;;;;;;;;;5112170;28;20411;-77
2022/08/08 02:57:27;;;;;;;0.70;0.30;;;;;;;;;;5104244;28;20024;-78
2022/08/08 03:00:16;;;;;;;0.80;0.50;;;;;;;;;;5095249;28;20039;-78
2022/08/08 03:03:19;;;;;;;3.13;0.82;;;;;;;;;;5095632;28;20429;-78
2022/08/08 03:06:02;;;;;;;1.42;1.08;;;;;;;;;;5080611;28;20119;-79
2022/08/08 03:09:05;;;;;;;1.30;0.50;;;;;;;;;;5091037;28;20114;-77
2022/08/08 03:11:54;;;;;;;0.98;0.77;;;;;;;;;;5093546;28;20031;-78
2022/08/08 03:14:45;;;;;;;1.38;0.63;;;;;;;;;;5095079;28;20027;-77
2022/08/08 03:17:29;;;;;;;1.92;0.80;;;;;;;;;;5091736;28;20388;-77
2022/08/08 03:20:05;;;;;;;2.17;0.82;;;;;;;;;;5098593;28;20444;-77
2022/08/08 03:22:32;;;;;;;4.30;1.13;;;;;;;;;;5101252;28;20360;-77
2022/08/08 03:25:00;;;;;;;0.88;0.65;;;;;;;;;;5109799;28;20084;-76
2022/08/08 03:27:34;;;;;;;1.83;0.70;;;;;;;;;;5092725;28;20023;-77
2022/08/08 03:30:12;;;;;;;0.80;0.70;;;;;;;;;;5087988;28;20357;-78
2022/08/08 03:35:26;;;;;;;0.65;0.65;;;;;;;;;;5081543;28;20504;-78
2022/08/08 03:37:56;;;;;;;1.80;1.50;;;;;;;;;;5104455;28;20088;-78
2022/08/08 03:40:22;;;;;;;2.38;0.90;;;;;;;;;;5083002;28;20032;-77
2022/08/08 03:42:48;;;;;;;0.82;0.80;;;;;;;;;;5104647;28;20115;-76
2022/08/08 03:45:23;;;;;;;1.50;0.90;;;;;;;;;;5061033;28;20103;-75
2022/08/08 03:48:07;;;;;;;0.75;0.35;;;;;;;;;;5076495;28;20024;-76
2022/08/08 03:50:42;;;;;;;2.35;1.10;;;;;;;;;;5095340;28;20451;-76
2022/08/08 03:53:13;;;;;;;2.47;1.13;;;;;;;;;;5087787;28;20048;-77
2022/08/08 03:55:40;;;;;;;3.83;1.52;;;;;;;;;;5082469;28;20026;-77
2022/08/08 03:58:05;;;;;;;1.30;1.20;;;;;;;;;;5101001;28;20630;-77
2022/08/08 04:00:31;;;;;;;2.47;1.40;;;;;;;;;;5106748;28;20036;-76
2022/08/08 04:03:03;;;;;;;3.20;1.00;;;;;;;;;;5090964;28;20502;-76
2022/08/08 04:05:38;;;;;;;0.52;0.40;;;;;;;;;;5056819;28;20036;-76
2022/08/08 04:08:05;;;;;;;2.15;1.33;;;;;;;;;;5089070;28;20151;-76
2022/08/08 04:10:32;;;;;;;2.55;0.82;;;;;;;;;;5085842;28;20075;-77
2022/08/08 04:12:58;;;;;;;1.13;0.95;;;;;;;;;;5082796;28;20103;-76
2022/08/08 04:15:23;;;;;;;3.83;1.05;;;;;;;;;;5095177;28;20112;-76
2022/08/08 04:17:49;;;;;;;1.67;1.05;;;;;;;;;;5094971;28;20448;-76
2022/08/08 04:20:15;;;;;;;2.25;0.85;;;;;;;;;;5102300;28;20515;-76
2022/08/08 04:22:40;;;;;;;1.13;1.00;;;;;;;;;;5091789;28;20035;-76
2022/08/08 04:25:07;;;;;;;2.40;0.82;;;;;;;;;;5075455;28;20034;-75
2022/08/08 04:27:33;;;;;;;1.17;0.80;;;;;;;;;;5077770;28;20050;-76
2022/08/08 04:29:58;;;;;;;1.02;0.90;;;;;;;;;;5113446;28;20489;-76
2022/08/08 04:32:24;;;;;;;1.63;1.23;;;;;;;;;;5075634;28;20036;-74
2022/08/08 04:34:49;;;;;;;1.92;0.85;;;;;;;;;;5110779;28;20055;-75
2022/08/08 04:37:15;;;;;;;2.33;0.93;;;;;;;;;;5114291;28;20357;-76
2022/08/08 04:39:42;;;;;;;0.82;0.75;;;;;;;;;;5111965;28;20080;-76
2022/08/08 04:42:08;;;;;;;0.85;0.85;;;;;;;;;;5098955;28;20024;-76
2022/08/08 04:44:35;;;;;;;1.88;1.33;;;;;;;;;;5078968;28;20034;-76
2022/08/08 04:47:01;;;;;;;1.95;1.42;;;;;;;;;;5078445;28;20060;-76
2022/08/08 04:49:26;;;;;;;1.65;1.35;;;;;;;;;;5087381;28;20450;-76
2022/08/08 04:51:52;;;;;;;2.05;1.00;;;;;;;;;;5076823;28;20055;-76
2022/08/08 04:54:19;;;;;;;3.13;1.58;;;;;;;;;;5089103;28;20379;-76
2022/08/08 04:56:45;;;;;;;2.40;1.40;;;;;;;;;;5068618;28;20096;-76
2022/08/08 04:59:10;;;;;;;2.45;1.40;;;;;;;;;;5096910;28;20046;-75
2022/08/08 05:01:35;;;;;;;2.95;1.45;;;;;;;;;;5080458;28;20448;-76
2022/08/08 05:04:03;;;;;;;2.05;1.33;;;;;;;;;;5060618;28;20090;-76
2022/08/08 05:06:31;;;;;;;2.22;1.27;;;;;;;;;;5104871;28;20062;-75
2022/08/08 05:08:59;;;;;;;3.63;1.13;;;;;;;;;;5095839;28;20023;-76
2022/08/08 05:11:25;;;;;;;3.20;1.15;;;;;;;;;;5094702;28;20027;-75
2022/08/08 05:13:50;;;;;;;2.55;1.45;;;;;;;;;;5094972;28;20442;-77
2022/08/08 05:16:18;;;;;;;1.70;0.75;;;;;;;;;;5070884;28;20119;-77
2022/08/08 05:18:44;;;;;;;3.38;1.38;;;;;;;;;;5094339;28;20146;-77
2022/08/08 05:21:14;;;;;;;4.00;1.20;;;;;;;;;;5097515;28;20468;-76
2022/08/08 05:23:39;;;;;;;1.67;1.30;;;;;;;;;;5097793;28;20031;-76
2022/08/08 05:26:05;;;;;;;3.70;2.05;;;;;;;;;;5079607;28;20043;-78
2022/08/08 05:28:30;;;;;;;1.73;1.10;;;;;;;;;;5092551;28;20126;-77
2022/08/08 05:30:58;;;;;;;3.88;1.67;;;;;;;;;;5098432;28;20027;-77
2022/08/08 05:33:23;;;;;;;2.75;1.58;;;;;;;;;;5092764;28;20031;-77
2022/08/08 05:35:52;;;;;;;2.92;1.77;;;;;;;;;;5080278;28;20100;-77
2022/08/08 05:38:17;;;;;;;1.10;0.95;;;;;;;;;;5096096;28;20079;-77
2022/08/08 05:40:50;;;;;;;1.65;0.77;;;;;;;;;;5094942;28;20032;-77
2022/08/08 05:43:25;;;;;;;0.90;0.77;;;;;;;;;;5077241;28;20028;-78
2022/08/08 05:45:58;;;;;;;1.67;1.30;;;;;;;;;;5092284;28;20457;-77
2022/08/08 05:48:23;;;;;;;;;;;;;;;;;;5076823;28;20460;-77
2022/08/08 05:50:49;;;;;;;1.88;1.10;;;;;;;;;;5111363;28;19912;-77
2022/08/08 05:53:16;;;;;;;1.90;1.45;;;;;;;;;;5106978;28;20027;-77
2022/08/08 05:55:43;;;;;;;2.10;1.38;;;;;;;;;;5077707;28;20036;-77
2022/08/08 05:58:11;;;;;;;2.85;1.17;;;;;;;;;;5090528;28;20043;-77
2022/08/08 06:00:44;;;;;;;2.40;1.55;;;;;;;;;;5083883;28;20415;-75
2022/08/08 06:03:18;;;;;;;5.38;1.30;;;;;;;;;;5071519;28;20464;-76
2022/08/08 06:06:08;;;;;;;2.22;1.67;;;;;;;;;;5076068;28;20039;-76
2022/08/08 06:08:49;;;;;;;2.00;1.55;;;;;;;;;;5062083;28;20032;-76
2022/08/08 06:11:14;;;;;;;2.17;1.73;;;;;;;;;;5106571;28;20023;-77
2022/08/08 06:13:40;;;;;;;1.20;1.00;;;;;;;;;;5091269;28;20326;-76
2022/08/08 06:16:05;;;;;;;2.17;1.33;;;;;;;;;;5108825;28;20353;-77
2022/08/08 06:18:31;;;;;;;3.35;1.33;;;;;;;;;;5097937;28;20081;-75
2022/08/08 06:20:59;;;;;;;1.55;1.40;;;;;;;;;;5095203;28;20028;-76
2022/08/08 06:23:26;;;;;;;2.33;1.33;;;;;;;;;;5063491;28;20081;-77
2022/08/08 06:26:03;;;;;;;1.88;1.50;;;;;;;;;;5100648;28;20031;-77
2022/08/08 06:28:30;;;;;;;3.53;1.50;;;;;;;;;;5077748;28;20036;-78
2022/08/08 06:30:59;;;;;;;1.55;1.25;;;;;;;;;;5092807;28;20039;-77
2022/08/08 06:33:34;;;;;;;2.13;1.20;;;;;;;;;;5096723;28;20035;-76
2022/08/08 06:36:00;;;;;;;4.00;1.90;;;;;;;;;;5101995;28;20367;-77
2022/08/08 06:38:27;;;;;;;1.48;0.93;;;;;;;;;;5117384;28;20027;-77
2022/08/08 06:40:56;;;;;;;1.73;1.25;;;;;;;;;;5081155;28;20359;-77
2022/08/08 06:43:22;;;;;;;6.57;2.05;;;;;;;;;;5063546;28;20029;-78
2022/08/08 06:45:47;;;;;;;1.15;0.75;;;;;;;;;;5066038;28;20106;-78
2022/08/08 06:48:16;;;;;;;4.45;2.40;;;;;;;;;;5099024;28;20136;-76
2022/08/08 06:50:41;;;;;;;2.15;1.33;;;;;;;;;;5098082;28;20024;-79
2022/08/08 06:53:12;;;;;;;2.67;1.67;;;;;;;;;;5117639;28;20028;-77
2022/08/08 06:55:38;;;;;;;4.15;1.77;;;;;;;;;;5114010;28;20019;-77
2022/08/08 06:58:03;;;;;;;1.75;1.25;;;;;;;;;;5107680;28;20047;-78
2022/08/08 07:00:31;;;;;;;3.33;1.75;;;;;;;;;;5100236;28;20039;-78
2022/08/08 07:03:01;;;;;;;1.85;1.40;;;;;;;;;;5093293;28;20027;-78
2022/08/08 07:05:28;;;;;;;2.05;1.67;;;;;;;;;;5099313;28;20069;-79
2022/08/08 07:08:09;;;;;;;2.13;1.33;;;;;;;;;;5063394;28;20053;-79
2022/08/08 07:10:41;;;;;;;2.33;1.45;;;;;;;;;;5103727;28;20023;-78
2022/08/08 07:13:08;;;;;;;2.00;1.15;;;;;;;;;;5088550;28;20039;-77
2022/08/08 07:15:40;;;;;;;1.27;0.88;;;;;;;;;;5080237;28;20029;-78
2022/08/08 07:18:07;;;;;;;1.67;0.85;;;;;;;;;;5077613;28;20110;-80
2022/08/08 07:23:26;;;;;;;1.52;0.90;;;;;;;;;;5058832;28;20051;-79
2022/08/08 07:26:10;;;;;;;2.93;1.93;;;;;;;;;;5069922;28;20350;-77
2022/08/08 07:28:38;;;;;;;2.03;1.23;;;;;;;;;;5096891;28;20035;-77
2022/08/08 07:31:04;;;;;;;1.30;1.20;;;;;;;;;;5080668;28;20393;-79
2022/08/08 07:33:48;;;;;;;1.35;0.95;;;;;;;;;;5097158;28;20039;-78
2022/08/08 07:36:14;;;;;;;4.60;2.05;;;;;;;;;;5061616;28;20032;-78
2022/08/08 07:38:40;;;;;;;0.90;0.85;;;;;;;;;;5104295;28;20369;-78
2022/08/08 07:44:29;;;;;;;;;;;;;;;;;;5117538;28;20039;-79
2022/08/08 07:46:57;;;;;;;2.05;1.73;;;;;;;;;;5085686;28;19916;-79
2022/08/08 07:55:43;;;;;;;;;;;;;;;;;;5094741;28;20147;-79
2022/08/08 07:58:34;;;;;;;1.60;1.10;;;;;;;;;;5061590;28;19998;-77
2022/08/08 08:01:14;;;;;;;1.50;1.08;;;;;;;;;;5093726;28;20290;-78
2022/08/08 08:04:22;;;;;;;1.47;1.13;;;;;;;;;;5095280;28;20024;-78
2022/08/08 08:06:49;;;;;;;1.88;1.40;;;;;;;;;;5024477;28;20327;-78
2022/08/08 08:09:21;;;;;;;1.52;1.08;;;;;;;;;;5017718;28;20104;-79
2022/08/08 08:11:49;;;;;;;1.35;1.25;;;;;;;;;;5033090;28;20425;-78
2022/08/08 08:14:22;;;;;;;1.60;1.27;;;;;;;;;;5034011;28;20040;-78
2022/08/08 08:16:48;;;;;;;1.20;1.08;;;;;;;;;;5033167;28;20041;-75
2022/08/08 08:19:14;;;;;;;1.02;0.73;;;;;;;;;;5033903;28;20029;-76
2022/08/08 08:21:47;;;;;;;1.02;0.90;;;;;;;;;;5033108;28;20108;-76
2022/08/08 08:24:13;;;;;;;0.95;0.88;;;;;;;;;;5033654;28;20037;-77
2022/08/08 08:26:39;;;;;;;2.17;0.95;;;;;;;;;;5017083;28;20112;-78
2022/08/08 08:29:05;;;;;;;2.17;1.20;;;;;;;;;;5033359;28;20128;-77
2022/08/08 08:31:30;;;;;;;2.15;1.40;;;;;;;;;;4999606;28;20041;-78
2022/08/08 08:33:58;;;;;;;1.90;1.10;;;;;;;;;;5016085;28;20028;-78
2022/08/08 08:36:24;;;;;;;2.25;0.75;;;;;;;;;;5019291;28;20035;-77
2022/08/08 08:38:50;;;;;;;1.15;0.85;;;;;;;;;;5096277;28;20423;-79
2022/08/08 08:41:19;;;;;;;1.70;1.15;;;;;;;;;;5097970;28;20020;-78
2022/08/08 08:43:47;;;;;;;2.50;1.50;;;;;;;;;;5115512;28;20078;-77
2022/08/08 08:46:13;;;;;;;0.75;0.75;;;;;;;;;;5088677;28;20148;-78
2022/08/08 08:48:41;;;;;;;2.35;1.10;;;;;;;;;;5095297;28;20016;-78
2022/08/08 08:51:12;;;;;;;3.05;1.23;;;;;;;;;;5095305;28;20051;-79
2022/08/08 08:53:59;;;;;;;1.20;1.08;;;;;;;;;;5114945;28;20019;-77
2022/08/08 08:56:25;;;;;;;1.67;1.30;;;;;;;;;;5097506;28;20073;-78
2022/08/08 08:58:51;;;;;;;1.10;1.00;;;;;;;;;;5098023;28;20044;-78
2022/08/08 09:01:19;;;;;;;1.27;1.02;;;;;;;;;;5081207;28;20075;-77
2022/08/08 09:03:46;;;;;;;0.55;0.52;;;;;;;;;;5077353;28;20032;-79
2022/08/08 09:06:17;;;;;;;2.20;0.95;;;;;;;;;;5077471;28;20025;-78
2022/08/08 09:08:45;;;;;;;1.48;0.88;;;;;;;;;;5084480;28;20335;-78
2022/08/08 09:11:12;;;;;;;1.52;0.90;;;;;;;;;;5075049;28;20040;-79
2022/08/08 09:13:38;;;;;;;1.08;0.85;;;;;;;;;;5057439;28;20031;-78
2022/08/08 09:16:04;;;;;;;1.75;0.95;;;;;;;;;;5084063;28;20111;-78
2022/08/08 09:18:30;;;;;;;1.02;0.93;;;;;;;;;;5095568;28;20578;-79
2022/08/08 09:20:58;;;;;;;0.82;0.82;;;;;;;;;;5086733;28;20333;-78
2022/08/08 09:23:24;;;;;;;1.50;1.00;;;;;;;;;;5093657;28;20034;-77
2022/08/08 09:25:56;;;;;;;1.17;0.80;;;;;;;;;;5092971;28;20023;-77
2022/08/08 09:28:22;;;;;;;;;;;;;;;;;;5077574;28;20028;-77
2022/08/08 09:30:50;;;;;;;2.22;0.80;;;;;;;;;;5076959;28;20341;-77
2022/08/08 09:33:16;;;;;;;1.83;1.23;;;;;;;;;;5094628;28;20092;-78
2022/08/08 09:35:46;;;;;;;2.42;1.27;;;;;;;;;;5076868;28;20012;-79
2022/08/08 09:38:19;;;;;;;1.42;0.90;;;;;;;;;;5107807;28;20019;-78
2022/08/08 09:40:50;;;;;;;1.58;1.02;;;;;;;;;;5090317;28;20023;-77
2022/08/08 09:43:19;;;;;;;0.60;0.55;;;;;;;;;;5093915;28;20028;-79
2022/08/08 09:45:54;;;;;;;1.15;0.80;;;;;;;;;;5085429;28;20098;-79
2022/08/08 09:48:19;;;;;;;1.02;0.73;;;;;;;;;;5097445;28;20020;-79
2022/08/08 09:50:45;;;;;;;1.23;0.65;;;;;;;;;;5101247;28;20103;-78
2022/08/08 09:53:13;;;;;;;1.13;0.90;;;;;;;;;;5086212;28;20031;-79
2022/08/08 09:55:38;;;;;;;1.45;1.00;;;;;;;;;;5076405;28;20571;-77
2022/08/08 09:58:06;;;;;;;1.02;0.80;;;;;;;;;;5091936;28;20039;-78
2022/08/08 10:00:35;;;;;;;0.30;0.30;;;;;;;;;;5094470;28;20043;-78
2022/08/08 10:03:05;;;;;;;0.82;0.60;;;;;;;;;;5091314;28;20020;-77
2022/08/08 10:05:35;;;;;;;1.25;0.80;;;;;;;;;;5078520;28;20066;-78
2022/08/08 10:08:08;;;;;;;0.68;0.63;;;;;;;;;;5093992;28;20457;-78
2022/08/08 10:10:42;;;;;;;0.77;0.77;;;;;;;;;;5090870;28;20058;-77
2022/08/08 10:13:20;;;;;;;1.23;0.75;;;;;;;;;;5095852;28;20360;-76
2022/08/08 10:15:51;;;;;;;0.50;0.50;;;;;;;;;;5080751;28;20051;-77
2022/08/08 10:18:33;;;;;;;0.57;0.57;;;;;;;;;;5091572;28;20385;-77
2022/08/08 10:21:11;;;;;;;0.85;0.50;;;;;;;;;;5087752;28;20028;-77
2022/08/08 10:23:39;;;;;;;1.05;0.70;;;;;;;;;;5091569;28;20189;-77
2022/08/08 10:26:05;;;;;;;1.77;0.82;;;;;;;;;;5076877;28;20098;-79
2022/08/08 10:28:31;;;;;;;0.60;0.52;;;;;;;;;;5091878;28;20106;-75
2022/08/08 10:30:59;;;;;;;1.35;1.08;;;;;;;;;;5076769;28;20024;-77
2022/08/08 10:33:32;;;;;;;1.88;0.93;;;;;;;;;;5091835;28;20036;-82
2022/08/08 10:36:04;;;;;;;0.40;0.40;;;;;;;;;;5075822;28;20024;-77
2022/08/08 10:38:30;;;;;;;0.88;0.80;;;;;;;;;;5091582;28;20042;-78
2022/08/08 10:41:06;;;;;;;0.45;0.45;;;;;;;;;;5092869;28;20156;-78
2022/08/08 10:43:41;;;;;;;0.60;0.45;;;;;;;;;;5073396;28;20039;-76
2022/08/08 10:46:25;;;;;;;0.95;0.70;;;;;;;;;;5066898;28;20066;-79
2022/08/08 10:48:56;;;;;;;1.23;0.90;;;;;;;;;;5089933;28;20035;-79
2022/08/08 10:51:34;;;;;;;1.08;0.98;;;;;;;;;;5078145;28;20042;-78
2022/08/08 10:53:59;;;;;;;1.38;0.73;;;;;;;;;;5077910;28;20463;-77
2022/08/08 10:56:32;;;;;;;0.68;0.68;;;;;;;;;;5098620;28;20040;-79
2022/08/08 10:59:08;;;;;;;0.60;0.60;;;;;;;;;;5099661;28;20081;-79
2022/08/08 11:01:38;;;;;;;0.88;0.55;;;;;;;;;;5099849;28;20032;-78
2022/08/08 11:04:07;;;;;;;1.20;0.70;;;;;;;;;;5100853;28;20024;-77
2022/08/08 11:06:34;;;;;;;1.38;1.05;;;;;;;;;;5098426;28;20074;-76
2022/08/08 11:09:05;;;;;;;1.10;0.80;;;;;;;;;;5073343;28;20039;-77
2022/08/08 11:11:38;;;;;;;1.10;0.82;;;;;;;;;;5091716;28;20113;-81
2022/08/08 11:14:05;;;;;;;1.83;1.17;;;;;;;;;;5096090;28;20447;-79
2022/08/08 11:16:34;;;;;;;1.02;0.70;;;;;;;;;;5094465;28;20028;-80
2022/08/08 11:19:00;;;;;;;0.57;0.50;;;;;;;;;;5080581;28;20682;-82
2022/08/08 11:21:33;;;;;;;0.55;0.55;;;;;;;;;;5077670;28;20030;-77
2022/08/08 11:24:10;;;;;;;1.25;0.55;;;;;;;;;;5096911;28;21340;-86
2022/08/08 11:26:41;;;;;;;0.50;0.50;;;;;;;;;;5094167;28;20485;-77
2022/08/08 11:29:08;;;;;;;0.70;0.70;;;;;;;;;;5098746;28;20495;-78
2022/08/08 11:31:42;;;;;;;0.95;0.50;;;;;;;;;;5100968;28;20024;-77
2022/08/08 11:34:07;;;;;;;1.23;0.77;;;;;;;;;;5080720;28;20090;-77
2022/08/08 11:36:36;;;;;;;1.30;0.82;;;;;;;;;;5067024;28;20348;-77
2022/08/08 11:39:02;;;;;;;0.80;0.80;;;;;;;;;;5096693;28;20024;-78
2022/08/08 11:41:28;;;;;;;2.03;0.93;;;;;;;;;;5102423;28;20342;-76
2022/08/08 11:43:56;;;;;;;0.82;0.68;;;;;;;;;;5081170;28;20028;-77
2022/08/08 11:46:28;;;;;;;0.70;0.60;;;;;;;;;;5061542;28;20084;-76
2022/08/08 11:48:54;;;;;;;0.82;0.70;;;;;;;;;;5101676;28;20020;-77
2022/08/08 11:51:22;;;;;;;0.57;0.50;;;;;;;;;;5083580;28;20353;-77
2022/08/08 11:53:50;;;;;;;1.80;1.35;;;;;;;;;;5080557;28;20114;-76
2022/08/08 11:56:22;;;;;;;1.35;0.80;;;;;;;;;;5080040;28;20044;-77
2022/08/08 11:58:49;;;;;;;5.80;1.20;;;;;;;;;;5080733;28;20031;-76
2022/08/08 12:01:15;;;;;;;0.60;0.47;;;;;;;;;;5080445;28;20353;-77
2022/08/08 12:03:48;;;;;;;0.73;0.70;;;;;;;;;;5081112;28;20062;-78
2022/08/08 12:06:21;;;;;;;0.80;0.80;;;;;;;;;;5061076;28;20034;-77
2022/08/08 12:08:47;;;;;;;0.68;0.68;;;;;;;;;;5099162;28;20099;-78
2022/08/08 12:11:15;;;;;;;0.40;0.40;;;;;;;;;;5091038;28;20498;-79
2022/08/08 12:13:41;;;;;;;0.57;0.57;;;;;;;;;;5080965;28;20016;-77
2022/08/08 12:16:11;;;;;;;0.60;0.60;;;;;;;;;;5081367;28;20016;-77
2022/08/08 12:18:53;;;;;;;1.75;0.75;;;;;;;;;;5098408;28;20016;-77
2022/08/08 12:21:27;;;;;;;0.55;0.55;;;;;;;;;;5057801;28;20040;-78
2022/08/08 12:24:05;;;;;;;0.55;0.52;;;;;;;;;;5079441;28;20437;-77
2022/08/08 12:26:41;;;;;;;0.85;0.80;;;;;;;;;;5097866;28;20089;-77
2022/08/08 12:29:28;;;;;;;0.73;0.73;;;;;;;;;;5081782;28;20039;-77
2022/08/08 12:32:07;;;;;;;0.90;0.85;;;;;;;;;;5091048;28;20024;-77
2022/08/08 12:34:40;;;;;;;0.57;0.50;;;;;;;;;;5093625;28;20024;-77
2022/08/08 12:37:17;;;;;;;1.38;0.75;;;;;;;;;;5098625;28;20031;-77
2022/08/08 12:39:42;;;;;;;0.88;0.88;;;;;;;;;;5098639;28;20460;-77
2022/08/08 12:42:08;;;;;;;0.63;0.55;;;;;;;;;;5063161;28;20028;-77
2022/08/08 12:44:35;;;;;;;0.82;0.82;;;;;;;;;;5098157;28;20027;-77
2022/08/08 12:47:01;;;;;;;0.68;0.68;;;;;;;;;;5100728;28;20027;-78
2022/08/08 12:49:28;;;;;;;0.65;0.50;;;;;;;;;;5108978;28;20035;-77
2022/08/08 12:51:54;;;;;;;0.55;0.55;;;;;;;;;;5098088;28;20539;-78
2022/08/08 12:54:31;;;;;;;1.40;0.82;;;;;;;;;;5063454;28;20056;-79
2022/08/08 12:56:57;;;;;;;2.20;0.98;;;;;;;;;;5091702;28;20016;-77
2022/08/08 12:59:32;;;;;;;0.60;0.60;;;;;;;;;;5092718;28;20334;-77
2022/08/08 13:01:58;;;;;;;0.38;0.38;;;;;;;;;;5082836;28;20024;-75
2022/08/08 13:04:25;;;;;;;0.70;0.70;;;;;;;;;;5083342;28;20587;-77
2022/08/08 13:06:52;;;;;;;3.95;1.50;;;;;;;;;;5095411;28;20023;-76
2022/08/08 13:09:28;;;;;;;1.48;1.10;;;;;;;;;;5095540;28;20445;-77
2022/08/08 13:11:55;;;;;;;0.90;0.75;;;;;;;;;;5094134;28;20030;-76
2022/08/08 13:14:37;;;;;;;1.10;0.57;;;;;;;;;;5076823;28;20024;-77
2022/08/08 13:17:04;;;;;;;0.60;0.50;;;;;;;;;;5095329;28;20020;-77
2022/08/08 13:19:32;;;;;;;0.77;0.63;;;;;;;;;;5077414;28;20020;-77
2022/08/08 13:22:02;;;;;;;1.55;0.82;;;;;;;;;;5077155;28;20035;-84
2022/08/08 13:24:29;;;;;;;1.08;0.77;;;;;;;;;;5095293;28;20024;-87
2022/08/08 13:27:17;;;;;;;1.63;0.80;;;;;;;;;;5096024;28;20048;-88
2022/08/08 13:30:11;;;;;;;0.88;0.88;;;;;;;;;;5083685;28;20024;-86
2022/08/08 13:32:40;;;;;;;14.70;1.45;;;;;;;;;;5079157;28;20039;-90
2022/08/08 13:35:12;;;;;;;0.82;0.82;;;;;;;;;;5078591;28;20048;-87
2022/08/08 13:37:38;;;;;;;0.50;0.50;;;;;;;;;;5095188;28;20051;-87
2022/08/08 13:40:04;;;;;;;0.40;0.40;;;;;;;;;;5077335;28;20524;-86
2022/08/08 13:42:30;;;;;;;0.82;0.82;;;;;;;;;;5077443;28;20076;-83
2022/08/08 13:44:57;;;;;;;1.52;0.73;;;;;;;;;;5077186;28;20028;-88
2022/08/08 13:47:25;;;;;;;1.63;1.00;;;;;;;;;;5094653;28;20582;-84
2022/08/08 13:50:05;;;;;;;0.85;0.68;;;;;;;;;;5095089;28;20088;-88
2022/08/08 13:52:31;;;;;;;1.25;0.80;;;;;;;;;;5070559;28;20479;-89
2022/08/08 13:54:58;;;;;;;0.70;0.70;;;;;;;;;;5076521;28;20054;-86
2022/08/08 13:57:28;;;;;;;1.10;0.60;;;;;;;;;;5097794;28;20031;-88
2022/08/08 14:00:20;;;;;;;0.50;0.40;;;;;;;;;;5071555;28;20027;-84
2022/08/08 14:03:01;;;;;;;1.30;0.70;;;;;;;;;;5067838;28;20040;-87
2022/08/08 14:05:32;;;;;;;0.90;0.68;;;;;;;;;;5066909;28;20020;-89
2022/08/08 14:07:58;;;;;;;2.65;1.15;;;;;;;;;;5057450;28;20025;-87
2022/08/08 14:10:28;;;;;;;1.52;0.80;;;;;;;;;;5057199;28;20032;-86
2022/08/08 14:12:54;;;;;;;0.95;0.70;;;;;;;;;;5094071;28;20024;-87
2022/08/08 14:15:31;;;;;;;0.80;0.80;;;;;;;;;;5077916;28;20390;-86
2022/08/08 14:17:59;;;;;;;1.50;0.75;;;;;;;;;;5082844;28;20068;-88
2022/08/08 14:20:34;;;;;;;1.35;0.77;;;;;;;;;;5091774;28;20036;-87
2022/08/08 14:23:12;;;;;;;0.93;0.60;;;;;;;;;;5074050;28;20028;-90
2022/08/08 14:25:48;;;;;;;1.23;0.50;;;;;;;;;;5093797;28;20043;-87
2022/08/08 14:28:17;;;;;;;1.00;0.63;;;;;;;;;;5065269;28;20127;-84
2022/08/08 14:30:43;;;;;;;0.60;0.55;;;;;;;;;;5085102;28;20056;-85
2022/08/08 14:33:25;;;;;;;2.17;1.40;;;;;;;;;;5092459;28;20031;-85
2022/08/08 14:36:00;;;;;;;;;;;;;;;;;;5063800;28;20012;-84
2022/08/08 14:38:33;;;;;;;1.10;0.80;;;;;;;;;;5096903;28;19920;-86
2022/08/08 14:41:43;;;;;;;0.57;0.57;;;;;;;;;;5097058;28;20040;-84
2022/08/08 14:44:10;;;;;;;0.40;0.40;;;;;;;;;;5058922;28;20039;-85
2022/08/08 14:46:36;;;;;;;0.82;0.75;;;;;;;;;;5097357;28;20019;-82
2022/08/08 14:49:08;;;;;;;0.65;0.65;;;;;;;;;;5098082;28;20031;-85
2022/08/08 14:51:38;;;;;;;;;;;;;;;;;;5101493;28;20233;-84
2022/08/08 14:54:04;;;;;;;0.98;0.88;;;;;;;;;;5081520;28;20356;-83
2022/08/08 14:56:29;;;;;;;0.82;0.73;;;;;;;;;;5097198;28;20050;-85
2022/08/08 14:58:59;;;;;;;0.52;0.43;;;;;;;;;;5078722;28;20016;-83
2022/08/08 15:01:29;;;;;;;0.45;0.40;;;;;;;;;;5092720;28;20039;-84
2022/08/08 15:03:55;;;;;;;1.23;0.82;;;;;;;;;;5095149;28;20457;-83
2022/08/08 15:06:20;;;;;;;0.77;0.43;;;;;;;;;;5079177;28;20055;-86
2022/08/08 15:08:46;;;;;;;0.45;0.38;;;;;;;;;;5097503;28;20421;-81
2022/08/08 15:11:14;;;;;;;0.98;0.63;;;;;;;;;;5093878;28;20122;-83
2022/08/08 15:13:39;;;;;;;1.30;0.65;;;;;;;;;;5095946;28;20465;-86
2022/08/08 15:16:12;;;;;;;2.20;1.17;;;;;;;;;;5095613;28;20055;-82
2022/08/08 15:18:40;;;;;;;0.95;0.45;;;;;;;;;;5096745;28;20024;-84
2022/08/08 15:21:07;;;;;;;0.60;0.60;;;;;;;;;;5095945;28;20028;-83
2022/08/08 15:23:32;;;;;;;1.38;1.02;;;;;;;;;;5078498;28;20080;-88
2022/08/08 15:25:58;;;;;;;0.88;0.82;;;;;;;;;;5060887;28;20024;-77
2022/08/08 15:28:23;;;;;;;0.85;0.82;;;;;;;;;;5090840;28;20020;-81
2022/08/08 15:30:48;;;;;;;0.52;0.52;;;;;;;;;;5100154;28;20434;-79
2022/08/08 15:33:16;;;;;;;0.43;0.43;;;;;;;;;;5095919;28;20028;-81
2022/08/08 15:35:41;;;;;;;0.65;0.60;;;;;;;;;;5098622;28;20042;-88
2022/08/08 15:38:10;;;;;;;0.52;0.47;;;;;;;;;;5098689;28;20024;-79
2022/08/08 15:40:36;;;;;;;0.70;0.50;;;;;;;;;;5094044;28;20027;-84